createdAt,value
2018-11-11T00:01:34.296Z,52.78
2018-11-11T00:04:01.951Z,56.10
2018-11-11T00:06:29.567Z,55.50
2018-11-11T00:08:57.195Z,60.52
2018-11-11T00:11:24.890Z,97.33
2018-11-11T00:13:52.527Z,81.65
2018-11-11T00:16:20.257Z,89.83
2018-11-11T00:18:47.833Z,112.97
2018-11-11T00:21:16.369Z,63.45
2018-11-11T00:23:44.001Z,60.38
2018-11-11T00:26:11.654Z,69.27
2018-11-11T00:28:39.363Z,71.30
2018-11-11T00:31:06.951Z,86.30
2018-11-11T00:33:34.529Z,138.57
2018-11-11T00:36:02.187Z,79.97
2018-11-11T00:41:08.122Z,56.00
2018-11-11T00:43:35.696Z,88.70
2018-11-11T00:46:03.538Z,71.62
2018-11-11T00:48:31.144Z,50.92
2018-11-11T00:50:58.948Z,53.60
2018-11-11T00:53:26.579Z,57.15
2018-11-11T00:55:54.539Z,68.28
2018-11-11T00:58:22.115Z,65.90
2018-11-11T01:00:49.709Z,63.17
2018-11-11T01:03:17.410Z,63.20
2018-11-11T01:05:45.151Z,63.00
2018-11-11T01:08:12.867Z,59.88
2018-11-11T01:10:40.613Z,71.33
2018-11-11T01:13:08.653Z,68.40
2018-11-11T01:15:36.350Z,81.02
2018-11-11T01:18:04.109Z,68.80
2018-11-11T01:20:31.893Z,74.25
2018-11-11T01:22:59.575Z,69.35
2018-11-11T01:25:27.371Z,66.53
2018-11-11T01:27:55.163Z,71.50
2018-11-11T01:30:22.906Z,84.60
2018-11-11T01:32:50.566Z,78.65
2018-11-11T01:35:18.353Z,77.27
2018-11-11T01:37:46.058Z,68.20
2018-11-11T01:40:14.012Z,84.67
2018-11-11T01:42:41.771Z,82.10
2018-11-11T01:45:11.827Z,79.00
2018-11-11T01:47:39.478Z,72.50
2018-11-11T01:50:10.405Z,70.35
2018-11-11T01:52:38.458Z,79.35
2018-11-11T01:55:06.393Z,79.55
2018-11-11T01:57:34.532Z,64.45
2018-11-11T02:00:02.355Z,139.55
2018-11-11T02:02:30.029Z,75.17
2018-11-11T02:04:57.598Z,66.47
2018-11-11T02:07:25.370Z,61.37
2018-11-11T02:09:53.061Z,61.02
2018-11-11T02:12:20.685Z,62.17
2018-11-11T02:14:48.445Z,59.85
2018-11-11T02:17:16.005Z,84.07
2018-11-11T02:19:43.809Z,64.53
2018-11-11T02:22:11.405Z,61.85
2018-11-11T02:24:39.174Z,67.42
2018-11-11T02:27:06.978Z,108.07
2018-11-11T02:29:34.693Z,53.95
2018-11-11T02:32:02.499Z,60.05
2018-11-11T02:34:30.135Z,59.67
2018-11-11T02:36:57.970Z,66.05
2018-11-11T02:39:25.507Z,63.80
2018-11-11T02:41:53.246Z,60.08
2018-11-11T02:44:20.964Z,66.80
2018-11-11T02:46:48.618Z,72.90
2018-11-11T02:49:16.269Z,60.58
2018-11-11T02:51:43.801Z,51.92
2018-11-11T02:54:11.932Z,58.20
2018-11-11T02:56:39.520Z,56.90
2018-11-11T02:59:07.429Z,65.83
2018-11-11T03:01:35.086Z,75.20
2018-11-11T03:04:02.764Z,73.33
2018-11-11T03:06:30.419Z,61.10
2018-11-11T03:08:58.158Z,67.03
2018-11-11T03:11:25.784Z,67.47
2018-11-11T03:13:53.389Z,78.15
2018-11-11T03:16:21.245Z,65.32
2018-11-11T03:18:48.938Z,69.25
2018-11-11T03:21:16.628Z,73.42
2018-11-11T03:23:44.231Z,73.52
2018-11-11T03:26:12.291Z,72.78
2018-11-11T03:28:39.889Z,59.75
2018-11-11T03:31:07.631Z,72.62
2018-11-11T03:33:35.313Z,59.55
2018-11-11T03:36:03.043Z,65.83
2018-11-11T03:38:30.735Z,86.42
2018-11-11T03:40:58.284Z,60.12
2018-11-11T03:43:26.019Z,63.50
2018-11-11T03:45:53.617Z,73.87
2018-11-11T03:48:21.457Z,66.33
2018-11-11T03:50:49.202Z,67.20
2018-11-11T03:53:16.899Z,68.92
2018-11-11T03:55:44.588Z,65.85
2018-11-11T03:58:12.278Z,70.03
2018-11-11T04:00:39.990Z,62.17
2018-11-11T04:03:07.580Z,72.85
2018-11-11T04:05:35.310Z,65.37
2018-11-11T04:08:02.914Z,66.22
2018-11-11T04:10:30.666Z,68.28
2018-11-11T04:12:58.426Z,64.22
2018-11-11T04:15:26.052Z,69.80
2018-11-11T04:17:54.098Z,69.45
2018-11-11T04:20:21.696Z,64.07
2018-11-11T04:22:49.383Z,54.53
2018-11-11T04:25:17.675Z,66.85
2018-11-11T04:27:45.450Z,49.83
2018-11-11T04:30:14.209Z,48.63
2018-11-11T04:32:42.224Z,46.98
2018-11-11T04:35:10.098Z,49.20
2018-11-11T04:37:38.026Z,41.20
2018-11-11T04:40:07.373Z,43.42
2018-11-11T04:42:35.134Z,37.53
2018-11-11T04:45:03.050Z,33.73
2018-11-11T04:47:30.745Z,33.78
2018-11-11T04:49:58.435Z,34.60
2018-11-11T04:52:26.221Z,29.10
2018-11-11T04:54:53.788Z,32.48
2018-11-11T04:57:21.574Z,33.18
2018-11-11T04:59:49.272Z,30.57
2018-11-11T05:02:17.021Z,30.00
2018-11-11T05:04:44.867Z,32.73
2018-11-11T05:07:12.432Z,33.40
2018-11-11T05:09:40.095Z,28.65
2018-11-11T05:12:07.694Z,32.25
2018-11-11T05:14:35.297Z,32.00
2018-11-11T05:17:03.004Z,32.48
2018-11-11T05:19:30.855Z,26.87
2018-11-11T05:21:58.742Z,28.30
2018-11-11T05:24:32.934Z,31.48
2018-11-11T05:27:00.538Z,28.05
2018-11-11T05:29:28.282Z,32.48
2018-11-11T05:31:55.906Z,26.60
2018-11-11T05:34:23.552Z,28.62
2018-11-11T05:36:51.392Z,35.15
2018-11-11T05:39:19.037Z,29.65
2018-11-11T05:41:46.803Z,27.20
2018-11-11T05:44:14.526Z,32.40
2018-11-11T05:46:42.149Z,33.48
2018-11-11T05:49:09.955Z,30.27
2018-11-11T05:51:37.570Z,30.48
2018-11-11T05:54:05.385Z,41.68
2018-11-11T05:56:33.108Z,34.13
2018-11-11T05:59:01.148Z,33.00
2018-11-11T06:01:28.923Z,37.67
2018-11-11T06:03:56.485Z,31.93
2018-11-11T06:06:24.395Z,34.85
2018-11-11T06:08:52.001Z,31.35
2018-11-11T06:11:19.835Z,36.38
2018-11-11T06:13:47.499Z,38.17
2018-11-11T06:16:15.144Z,38.10
2018-11-11T06:18:42.899Z,36.98
2018-11-11T06:21:10.453Z,31.17
2018-11-11T06:23:38.298Z,29.57
2018-11-11T06:26:06.142Z,33.30
2018-11-11T06:28:33.811Z,29.18
2018-11-11T06:31:01.456Z,29.35
2018-11-11T06:33:29.309Z,33.38
2018-11-11T06:35:56.993Z,32.20
2018-11-11T06:38:24.657Z,32.23
2018-11-11T06:40:52.528Z,35.05
2018-11-11T06:43:20.118Z,29.18
2018-11-11T06:45:47.958Z,29.60
2018-11-11T06:48:15.789Z,36.08
2018-11-11T06:50:43.502Z,32.98
2018-11-11T06:53:11.195Z,31.37
2018-11-11T06:55:38.769Z,37.67
2018-11-11T06:58:07.196Z,33.13
2018-11-11T07:00:34.766Z,71.50
2018-11-11T07:03:13.610Z,48.05
2018-11-11T07:05:41.548Z,36.05
2018-11-11T07:08:09.220Z,29.63
2018-11-11T07:10:37.040Z,32.40
2018-11-11T07:13:04.926Z,36.83
2018-11-11T07:15:33.003Z,37.13
2018-11-11T07:18:00.752Z,35.00
2018-11-11T07:20:28.440Z,64.72
2018-11-11T07:22:56.204Z,55.75
2018-11-11T07:25:23.882Z,45.52
2018-11-11T07:27:51.426Z,41.13
2018-11-11T07:30:19.276Z,38.75
2018-11-11T07:32:47.048Z,30.95
2018-11-11T07:35:15.028Z,33.07
2018-11-11T07:37:42.838Z,26.47
2018-11-11T07:40:17.133Z,32.03
2018-11-11T07:42:44.954Z,28.67
2018-11-11T07:45:12.769Z,28.43
2018-11-11T07:47:40.431Z,30.03
2018-11-11T07:50:09.042Z,31.00
2018-11-11T07:52:37.228Z,29.50
2018-11-11T07:55:06.070Z,26.03
2018-11-11T07:57:33.728Z,25.80
2018-11-11T08:00:01.434Z,25.70
2018-11-11T08:02:29.040Z,28.50
2018-11-11T08:04:56.933Z,28.10
2018-11-11T08:07:24.541Z,24.63
2018-11-11T08:09:52.187Z,22.43
2018-11-11T08:12:19.799Z,26.20
2018-11-11T08:14:47.363Z,21.63
2018-11-11T08:17:14.951Z,18.87
2018-11-11T08:19:42.577Z,16.73
2018-11-11T08:22:10.235Z,20.30
2018-11-11T08:24:41.114Z,25.60
2018-11-11T08:27:08.735Z,16.70
2018-11-11T08:29:36.335Z,18.50
2018-11-11T08:32:04.575Z,18.17
2018-11-11T08:34:32.137Z,18.33
2018-11-11T08:36:59.763Z,20.87
2018-11-11T08:39:27.317Z,22.70
2018-11-11T08:41:54.893Z,19.17
2018-11-11T08:44:22.476Z,21.30
2018-11-11T08:46:50.070Z,26.40
2018-11-11T08:49:17.662Z,21.07
2018-11-11T08:51:45.260Z,16.83
2018-11-11T08:54:12.883Z,17.80
2018-11-11T08:56:40.447Z,19.13
2018-11-11T08:59:08.006Z,20.53
2018-11-11T09:01:35.587Z,21.67
2018-11-11T09:04:03.200Z,18.87
2018-11-11T09:06:30.812Z,23.60
2018-11-11T09:08:58.471Z,22.27
2018-11-11T09:11:26.104Z,26.07
2018-11-11T09:13:53.718Z,26.47
2018-11-11T09:16:21.427Z,20.87
2018-11-11T09:18:49.152Z,27.93
2018-11-11T09:21:16.827Z,26.37
2018-11-11T09:23:44.534Z,19.60
2018-11-11T09:26:12.114Z,25.73
2018-11-11T09:28:39.740Z,25.33
2018-11-11T09:31:07.334Z,23.43
2018-11-11T09:33:35.062Z,29.40
2018-11-11T09:36:02.687Z,23.10
2018-11-11T09:38:36.924Z,19.70
2018-11-11T09:41:05.030Z,30.03
2018-11-11T09:43:32.668Z,20.80
2018-11-11T09:46:00.258Z,25.50
2018-11-11T09:48:27.849Z,24.63
2018-11-11T09:50:55.535Z,20.30
2018-11-11T09:53:23.446Z,22.93
2018-11-11T09:55:51.124Z,20.00
2018-11-11T09:58:18.729Z,27.03
2018-11-11T10:00:46.896Z,24.10
2018-11-11T10:03:21.800Z,23.43
2018-11-11T10:05:58.047Z,23.70
2018-11-11T10:08:43.749Z,24.60
2018-11-11T10:11:17.829Z,25.20
2018-11-11T10:14:04.540Z,26.50
2018-11-11T10:16:37.721Z,26.03
2018-11-11T10:19:19.807Z,26.40
2018-11-11T10:21:54.761Z,25.70
2018-11-11T10:24:31.829Z,28.50
2018-11-11T10:27:06.172Z,22.63
2018-11-11T10:29:39.147Z,29.30
2018-11-11T10:32:22.553Z,22.73
2018-11-11T10:34:58.753Z,23.27
2018-11-11T10:37:32.300Z,23.10
2018-11-11T10:40:08.545Z,23.83
2018-11-11T10:42:41.937Z,23.20
2018-11-11T10:45:20.119Z,28.40
2018-11-11T10:48:04.225Z,46.37
2018-11-11T10:50:42.351Z,69.60
2018-11-11T10:53:09.962Z,31.73
2018-11-11T10:55:37.686Z,24.87
2018-11-11T10:58:05.371Z,21.83
2018-11-11T11:00:38.615Z,27.60
2018-11-11T11:03:12.135Z,24.20
2018-11-11T11:05:39.775Z,23.60
2018-11-11T11:08:07.355Z,24.50
2018-11-11T11:10:35.249Z,28.37
2018-11-11T11:13:02.925Z,28.37
2018-11-11T11:15:30.492Z,23.77
2018-11-11T11:17:58.083Z,32.63
2018-11-11T11:20:25.732Z,29.77
2018-11-11T11:22:53.315Z,26.50
2018-11-11T11:25:21.944Z,25.90
2018-11-11T11:27:49.546Z,24.10
2018-11-11T11:30:17.212Z,28.37
2018-11-11T11:32:44.862Z,26.30
2018-11-11T11:35:12.502Z,29.57
2018-11-11T11:37:40.114Z,31.57
2018-11-11T11:40:09.529Z,33.00
2018-11-11T11:42:37.554Z,31.60
2018-11-11T11:45:05.838Z,30.97
2018-11-11T11:47:33.485Z,33.30
2018-11-11T11:50:01.209Z,34.33
2018-11-11T11:52:28.898Z,31.40
2018-11-11T11:54:56.476Z,40.00
2018-11-11T11:57:24.098Z,40.20
2018-11-11T11:59:51.788Z,31.73
2018-11-11T12:02:19.479Z,31.60
2018-11-11T12:04:47.014Z,43.27
2018-11-11T12:07:14.671Z,45.60
2018-11-11T12:09:42.635Z,43.17
2018-11-11T12:12:10.328Z,55.07
2018-11-11T12:14:38.033Z,63.10
2018-11-11T12:17:06.172Z,65.63
2018-11-11T12:19:33.830Z,65.40
2018-11-11T12:22:01.524Z,61.00
2018-11-11T12:24:29.160Z,57.70
2018-11-11T12:26:56.744Z,62.60
2018-11-11T12:29:24.415Z,59.50
2018-11-11T12:31:52.016Z,58.43
2018-11-11T12:34:19.720Z,63.47
2018-11-11T12:36:47.396Z,57.03
2018-11-11T12:39:15.230Z,55.83
2018-11-11T12:41:42.764Z,57.47
2018-11-11T12:44:10.923Z,52.10
2018-11-11T12:46:38.600Z,52.77
2018-11-11T12:49:06.351Z,52.17
2018-11-11T12:51:33.929Z,51.83
2018-11-11T12:54:01.521Z,49.60
2018-11-11T12:56:29.119Z,52.53
2018-11-11T12:58:56.910Z,56.70
2018-11-11T13:01:24.573Z,60.70
2018-11-11T13:03:52.287Z,46.77
2018-11-11T13:06:19.957Z,51.40
2018-11-11T13:08:47.671Z,44.40
2018-11-11T13:11:15.883Z,58.83
2018-11-11T13:13:43.516Z,43.57
2018-11-11T13:16:11.094Z,46.60
2018-11-11T13:18:38.783Z,39.37
2018-11-11T13:21:06.483Z,43.33
2018-11-11T13:23:34.085Z,43.03
2018-11-11T13:26:01.704Z,48.30
2018-11-11T13:28:35.857Z,37.30
2018-11-11T13:31:03.664Z,48.30
2018-11-11T13:36:05.599Z,49.40
2018-11-11T13:38:33.201Z,46.23
2018-11-11T13:41:00.893Z,49.20
2018-11-11T13:43:28.454Z,45.53
2018-11-11T13:45:56.086Z,42.53
2018-11-11T13:48:23.719Z,44.10
2018-11-11T13:50:51.346Z,42.40
2018-11-11T13:53:18.968Z,42.20
2018-11-11T13:55:46.754Z,41.73
2018-11-11T13:58:14.332Z,37.77
2018-11-11T14:00:41.978Z,36.33
2018-11-11T14:03:09.612Z,41.47
2018-11-11T14:05:37.260Z,36.10
2018-11-11T14:08:04.948Z,38.40
2018-11-11T14:10:32.703Z,32.53
2018-11-11T14:13:00.372Z,38.57
2018-11-11T14:15:27.998Z,34.87
2018-11-11T14:17:56.201Z,35.90
2018-11-11T14:20:24.495Z,37.40
2018-11-11T14:22:53.036Z,31.47
2018-11-11T14:25:24.184Z,41.43
2018-11-11T14:27:51.746Z,41.03
2018-11-11T14:30:20.708Z,36.50
2018-11-11T14:32:49.135Z,40.73
2018-11-11T14:35:16.954Z,37.60
2018-11-11T14:37:47.322Z,41.67
2018-11-11T14:40:20.110Z,40.70
2018-11-11T14:42:48.193Z,38.50
2018-11-11T14:45:16.874Z,41.03
2018-11-11T14:47:45.917Z,41.50
2018-11-11T14:50:14.625Z,45.47
2018-11-11T14:52:42.918Z,43.67
2018-11-11T14:55:28.126Z,39.57
2018-11-11T14:57:56.650Z,41.47
2018-11-11T15:00:27.338Z,43.03
2018-11-11T15:03:00.149Z,41.03
2018-11-11T15:05:29.204Z,46.10
2018-11-11T15:07:58.479Z,41.27
2018-11-11T15:10:26.624Z,42.70
2018-11-11T15:12:54.491Z,41.40
2018-11-11T15:15:22.955Z,40.03
2018-11-11T15:17:54.438Z,48.77
2018-11-11T15:20:22.215Z,40.77
2018-11-11T15:22:49.864Z,31.73
2018-11-11T15:25:18.986Z,39.27
2018-11-11T15:27:47.249Z,52.77
2018-11-11T15:30:18.346Z,38.80
2018-11-11T15:32:46.479Z,36.27
2018-11-11T15:35:14.319Z,47.53
2018-11-11T15:37:42.129Z,39.37
2018-11-11T15:40:12.084Z,41.17
2018-11-11T15:42:40.817Z,45.00
2018-11-11T15:45:10.340Z,37.77
2018-11-11T15:47:39.555Z,46.50
2018-11-11T15:50:13.019Z,43.20
2018-11-11T15:52:41.914Z,45.10
2018-11-11T15:55:10.581Z,41.13
2018-11-11T15:57:38.272Z,52.00
2018-11-11T16:00:09.147Z,42.13
2018-11-11T16:02:36.883Z,37.40
2018-11-11T16:05:05.207Z,40.50
2018-11-11T16:07:33.338Z,43.33
2018-11-11T16:10:01.425Z,37.60
2018-11-11T16:12:30.438Z,43.67
2018-11-11T16:14:58.564Z,39.30
2018-11-11T16:17:26.872Z,57.00
2018-11-11T16:19:55.247Z,46.87
2018-11-11T16:22:23.284Z,40.13
2018-11-11T16:24:50.987Z,44.43
2018-11-11T16:27:19.015Z,41.43
2018-11-11T16:29:47.294Z,41.40
2018-11-11T16:32:15.318Z,42.77
2018-11-11T16:34:43.064Z,45.60
2018-11-11T16:37:10.764Z,43.93
2018-11-11T16:39:38.762Z,48.50
2018-11-11T16:42:06.401Z,46.07
2018-11-11T16:44:34.112Z,45.13
2018-11-11T16:47:02.326Z,46.37
2018-11-11T16:49:30.556Z,43.33
2018-11-11T16:51:58.940Z,40.50
2018-11-11T16:54:28.678Z,42.23
2018-11-11T16:56:56.949Z,44.03
2018-11-11T16:59:24.716Z,43.45
2018-11-11T17:01:52.468Z,52.88
2018-11-11T17:04:20.228Z,46.67
2018-11-11T17:06:48.174Z,38.40
2018-11-11T17:09:16.192Z,43.45
2018-11-11T17:11:44.028Z,43.55
2018-11-11T17:14:11.999Z,50.98
2018-11-11T17:16:39.831Z,53.83
2018-11-11T17:19:07.474Z,66.15
2018-11-11T17:21:35.302Z,55.73
2018-11-11T17:24:03.180Z,47.55
2018-11-11T17:26:31.479Z,53.92
2018-11-11T17:28:59.882Z,48.70
2018-11-11T17:31:28.506Z,39.25
2018-11-11T17:33:56.961Z,45.17
2018-11-11T17:36:25.152Z,43.05
2018-11-11T17:38:54.509Z,36.23
2018-11-11T17:41:22.934Z,41.02
2018-11-11T17:43:50.699Z,41.50
2018-11-11T17:46:18.530Z,39.23
2018-11-11T17:48:46.527Z,35.65
2018-11-11T17:51:15.079Z,43.25
2018-11-11T17:53:43.597Z,39.30
2018-11-11T17:56:11.383Z,39.10
2018-11-11T17:58:40.799Z,43.55
2018-11-11T18:01:08.522Z,42.20
2018-11-11T18:03:36.285Z,47.13
2018-11-11T18:06:05.141Z,49.13
2018-11-11T18:08:33.057Z,50.83
2018-11-11T18:11:01.183Z,44.48
2018-11-11T18:13:29.876Z,44.08
2018-11-11T18:15:58.893Z,45.00
2018-11-11T18:18:27.233Z,53.23
2018-11-11T18:20:55.410Z,45.23
2018-11-11T18:23:24.144Z,57.93
2018-11-11T18:25:51.912Z,56.02
2018-11-11T18:28:19.812Z,63.02
2018-11-11T18:30:47.764Z,63.73
2018-11-11T18:33:16.205Z,58.90
2018-11-11T18:35:44.259Z,55.08
2018-11-11T18:38:12.033Z,65.95
2018-11-11T18:40:39.760Z,52.58
2018-11-11T18:43:07.563Z,51.68
2018-11-11T18:45:35.695Z,55.58
2018-11-11T18:48:03.809Z,51.30
2018-11-11T18:50:32.774Z,51.48
2018-11-11T18:53:01.412Z,47.23
2018-11-11T18:55:30.201Z,45.15
2018-11-11T18:57:59.236Z,53.80
2018-11-11T19:00:29.599Z,94.35
2018-11-11T19:02:59.593Z,100.47
2018-11-11T19:05:30.050Z,109.78
2018-11-11T19:07:59.178Z,70.83
2018-11-11T19:10:29.057Z,114.10
2018-11-11T19:12:59.559Z,90.20
2018-11-11T19:15:28.231Z,88.10
2018-11-11T19:17:57.431Z,55.17
2018-11-11T19:20:26.345Z,58.92
2018-11-11T19:22:54.317Z,71.20
2018-11-11T19:25:23.651Z,51.00
2018-11-11T19:27:53.396Z,50.17
2018-11-11T19:30:23.550Z,50.20
2018-11-11T19:32:51.974Z,47.17
2018-11-11T19:35:20.397Z,57.70
2018-11-11T19:37:49.911Z,54.63
2018-11-11T19:40:20.571Z,42.58
2018-11-11T19:42:49.843Z,48.30
2018-11-11T19:45:19.447Z,45.50
2018-11-11T19:47:47.669Z,46.33
2018-11-11T19:50:17.959Z,59.08
2018-11-11T19:52:47.016Z,52.65
2018-11-11T19:55:15.404Z,51.85
2018-11-11T19:57:43.373Z,49.60
2018-11-11T20:00:14.443Z,48.55
2018-11-11T20:02:43.387Z,64.65
2018-11-11T20:05:12.593Z,68.42
2018-11-11T20:07:41.412Z,57.25
2018-11-11T20:10:11.000Z,50.40
2018-11-11T20:12:38.946Z,55.73
2018-11-11T20:15:09.117Z,56.33
2018-11-11T20:17:37.273Z,45.30
2018-11-11T20:20:07.956Z,40.63
2018-11-11T20:22:35.649Z,49.08
2018-11-11T20:25:04.604Z,49.35
2018-11-11T20:27:32.586Z,47.98
2018-11-11T20:30:00.435Z,47.53
2018-11-11T20:32:29.258Z,52.00
2018-11-11T20:34:57.457Z,41.50
2018-11-11T20:37:26.561Z,48.92
2018-11-11T20:39:54.781Z,51.77
2018-11-11T20:42:23.324Z,49.42
2018-11-11T20:44:51.026Z,47.58
2018-11-11T20:47:19.036Z,42.70
2018-11-11T20:49:46.877Z,42.38
2018-11-11T20:52:14.733Z,45.83
2018-11-11T20:54:42.466Z,46.70
2018-11-11T20:57:10.140Z,53.28
2018-11-11T20:59:37.807Z,44.13
2018-11-11T21:02:05.613Z,40.70
2018-11-11T21:04:34.513Z,39.45
2018-11-11T21:07:03.199Z,48.85
2018-11-11T21:09:31.284Z,49.30
2018-11-11T21:11:59.063Z,45.83
2018-11-11T21:14:26.833Z,45.40
2018-11-11T21:16:56.767Z,44.53
2018-11-11T21:19:25.143Z,36.88
2018-11-11T21:21:52.853Z,38.83
2018-11-11T21:24:20.573Z,35.15
2018-11-11T21:26:48.385Z,39.45
2018-11-11T21:29:16.904Z,38.80
2018-11-11T21:31:44.746Z,36.63
2018-11-11T21:34:12.509Z,38.60
2018-11-11T21:36:41.119Z,37.00
2018-11-11T21:39:10.489Z,34.95
2018-11-11T21:41:38.996Z,38.67
2018-11-11T21:44:06.649Z,34.03
2018-11-11T21:46:35.119Z,36.40
2018-11-11T21:49:02.935Z,38.70
2018-11-11T21:51:30.680Z,42.35
2018-11-11T21:53:58.430Z,49.85
2018-11-11T21:56:27.163Z,68.22
2018-11-11T21:58:55.587Z,54.70
2018-11-11T22:01:23.277Z,74.95
2018-11-11T22:03:50.893Z,156.40
2018-11-11T22:06:18.556Z,105.12
2018-11-11T22:08:46.605Z,71.65
2018-11-11T22:11:14.212Z,57.75
2018-11-11T22:13:42.075Z,51.85
2018-11-11T22:16:10.790Z,52.75
2018-11-11T22:18:38.320Z,54.10
2018-11-11T22:21:05.966Z,46.55
2018-11-11T22:23:34.518Z,45.92
2018-11-11T22:26:02.240Z,52.55
2018-11-11T22:28:30.006Z,60.17
2018-11-11T22:30:57.752Z,49.30
2018-11-11T22:33:25.440Z,72.67
2018-11-11T22:35:53.104Z,74.70
2018-11-11T22:38:20.716Z,85.83
2018-11-11T22:40:48.362Z,61.63
2018-11-11T22:43:15.981Z,50.30
2018-11-11T22:45:43.581Z,55.58
2018-11-11T22:48:11.822Z,87.02
2018-11-11T22:50:39.347Z,56.90
2018-11-11T22:53:06.885Z,72.65
2018-11-11T22:55:34.434Z,78.95
2018-11-11T22:58:02.093Z,44.50
2018-11-11T23:00:30.768Z,48.38
2018-11-11T23:02:58.533Z,43.73
2018-11-11T23:05:26.244Z,54.77
2018-11-11T23:07:53.813Z,52.90
2018-11-11T23:10:21.535Z,59.03
2018-11-11T23:12:49.119Z,49.80
2018-11-11T23:15:17.851Z,67.95
2018-11-11T23:17:45.445Z,79.17
2018-11-11T23:20:14.323Z,63.75
2018-11-11T23:22:42.049Z,63.42
2018-11-11T23:25:11.311Z,55.83
2018-11-11T23:27:38.848Z,65.80
2018-11-11T23:30:09.621Z,47.58
2018-11-11T23:32:37.194Z,50.50
2018-11-11T23:35:05.613Z,52.27
2018-11-11T23:37:33.206Z,53.28
2018-11-11T23:40:00.810Z,56.60
2018-11-11T23:42:28.514Z,58.55
2018-11-11T23:44:56.139Z,55.67
2018-11-11T23:47:23.796Z,75.47
2018-11-11T23:49:51.340Z,79.67
2018-11-11T23:52:18.877Z,78.90
2018-11-11T23:54:46.506Z,160.18
2018-11-11T23:57:14.061Z,72.87
2018-11-11T23:59:41.630Z,75.08
